createdAt,value
2022-08-05T00:04:05.191Z,1.60
2022-08-05T00:08:34.900Z,1.33
2022-08-05T00:12:55.895Z,1.52
2022-08-05T00:17:19.344Z,1.50
2022-08-05T00:21:31.394Z,1.75
2022-08-05T00:25:48.013Z,1.65
2022-08-05T00:30:11.547Z,1.73
2022-08-05T00:34:55.990Z,1.65
2022-08-05T00:38:55.010Z,1.48
2022-08-05T00:43:11.229Z,1.55
2022-08-05T00:47:31.550Z,1.70
2022-08-05T00:51:59.319Z,1.80
2022-08-05T00:56:11.103Z,1.77
2022-08-05T01:00:25.873Z,1.60
2022-08-05T01:04:37.844Z,1.70
2022-08-05T01:08:53.887Z,1.58
2022-08-05T01:13:22.260Z,1.88
2022-08-05T01:17:53.734Z,1.75
2022-08-05T01:22:23.884Z,1.63
2022-08-05T01:26:45.075Z,1.90
2022-08-05T01:31:07.245Z,1.60
2022-08-05T01:35:50.584Z,1.77
2022-08-05T01:39:59.393Z,1.98
2022-08-05T01:44:12.101Z,1.98
2022-08-05T01:48:29.540Z,1.88
2022-08-05T01:52:44.068Z,2.30
2022-08-05T01:58:10.132Z,2.05
2022-08-05T02:01:31.939Z,1.75
2022-08-05T02:05:53.759Z,1.95
2022-08-05T02:10:12.623Z,2.30
2022-08-05T02:14:34.095Z,2.00
2022-08-05T02:18:54.719Z,1.80
2022-08-05T02:23:10.976Z,2.45
2022-08-05T02:27:30.255Z,1.95
2022-08-05T02:31:57.978Z,1.50
2022-08-05T02:36:15.545Z,1.58
2022-08-05T02:40:28.154Z,1.77
2022-08-05T02:44:42.582Z,2.05
2022-08-05T02:48:56.387Z,2.20
2022-08-05T02:53:11.788Z,1.73
2022-08-05T02:58:09.832Z,1.70
2022-08-05T03:02:02.301Z,1.73
2022-08-05T03:06:56.735Z,1.70
2022-08-05T03:11:53.349Z,2.58
2022-08-05T03:15:20.254Z,1.75
2022-08-05T03:19:34.020Z,1.80
2022-08-05T03:23:46.825Z,1.88
2022-08-05T03:28:00.604Z,2.05
2022-08-05T03:32:14.393Z,1.70
2022-08-05T03:36:30.040Z,1.92
2022-08-05T03:40:45.077Z,1.85
2022-08-05T03:44:59.068Z,2.15
2022-08-05T03:49:13.537Z,1.92
2022-08-05T03:55:50.017Z,1.85
2022-08-05T03:58:02.449Z,2.17
2022-08-05T04:02:17.507Z,1.83
2022-08-05T04:06:51.397Z,2.00
2022-08-05T04:11:05.199Z,1.80
2022-08-05T04:15:18.506Z,2.05
2022-08-05T04:19:30.568Z,1.92
2022-08-05T04:24:00.272Z,1.65
2022-08-05T04:28:15.270Z,1.70
2022-08-05T04:32:31.090Z,1.55
2022-08-05T04:36:50.147Z,1.77
2022-08-05T04:41:03.555Z,1.88
2022-08-05T04:45:22.909Z,1.60
2022-08-05T04:50:06.499Z,2.13
2022-08-05T04:54:20.014Z,1.85
2022-08-05T04:58:31.662Z,2.00
2022-08-05T05:02:43.463Z,1.67
2022-08-05T05:06:57.661Z,1.88
2022-08-05T05:11:10.725Z,1.60
2022-08-05T05:15:57.663Z,1.75
2022-08-05T05:19:58.594Z,2.00
2022-08-05T05:24:11.757Z,1.95
2022-08-05T05:28:24.923Z,1.40
2022-08-05T05:32:36.624Z,1.75
2022-08-05T05:36:48.522Z,1.38
2022-08-05T05:41:02.938Z,1.77
2022-08-05T05:45:14.835Z,1.58
2022-08-05T05:49:26.732Z,1.73
2022-08-05T05:53:54.641Z,1.58
2022-08-05T05:58:10.042Z,1.63
2022-08-05T06:02:32.727Z,1.33
2022-08-05T06:06:49.586Z,1.70
2022-08-05T06:11:01.486Z,1.80
2022-08-05T06:15:23.675Z,1.75
2022-08-05T06:19:36.030Z,1.77
2022-08-05T06:23:49.847Z,1.65
2022-08-05T06:28:11.763Z,1.80
2022-08-05T06:32:32.484Z,1.50
2022-08-05T06:36:57.051Z,1.55
2022-08-05T06:41:10.033Z,1.52
2022-08-05T06:45:45.070Z,1.25
2022-08-05T06:50:00.352Z,1.90
2022-08-05T06:54:19.018Z,1.50
2022-08-05T06:58:36.509Z,1.33
2022-08-05T07:02:48.618Z,1.38
2022-08-05T07:07:07.807Z,1.50
2022-08-05T07:11:22.495Z,1.70
2022-08-05T07:16:01.584Z,1.38
2022-08-05T07:20:32.902Z,0.93
2022-08-05T07:24:52.530Z,1.42
2022-08-05T07:29:05.331Z,1.00
2022-08-05T07:33:17.422Z,1.23
2022-08-05T07:37:36.039Z,1.23
2022-08-05T07:42:13.897Z,1.38
2022-08-05T07:46:25.287Z,1.30
2022-08-05T07:50:37.849Z,1.20
2022-08-05T07:54:50.774Z,1.48
2022-08-05T07:59:04.688Z,1.10
2022-08-05T08:03:21.542Z,0.88
2022-08-05T08:07:39.630Z,0.90
2022-08-05T08:12:12.477Z,0.82
2022-08-05T08:16:34.856Z,1.10
2022-08-05T08:21:04.108Z,0.90
2022-08-05T08:25:26.732Z,1.10
2022-08-05T08:30:05.222Z,0.98
2022-08-05T08:34:30.507Z,0.80
2022-08-05T08:38:53.474Z,1.00
2022-08-05T08:45:16.413Z,1.17
2022-08-05T08:48:05.565Z,1.00
2022-08-05T08:52:17.810Z,0.98
2022-08-05T08:56:30.097Z,0.90
2022-08-05T09:00:42.860Z,0.80
2022-08-05T09:05:16.150Z,1.10
2022-08-05T09:09:32.479Z,1.20
2022-08-05T09:14:09.738Z,0.80
2022-08-05T09:18:19.850Z,0.90
2022-08-05T09:23:05.122Z,0.95
2022-08-05T09:28:05.339Z,0.90
2022-08-05T09:32:46.221Z,0.60
2022-08-05T09:36:55.083Z,0.68
2022-08-05T09:41:11.933Z,0.50
2022-08-05T09:46:07.339Z,0.60
2022-08-05T09:50:13.626Z,0.75
2022-08-05T09:54:31.673Z,0.77
2022-08-05T09:58:59.228Z,0.60
2022-08-05T10:03:11.414Z,0.70
2022-08-05T10:08:35.379Z,0.57
2022-08-05T10:12:18.759Z,0.63
2022-08-05T10:16:43.055Z,0.68
2022-08-05T10:21:11.863Z,0.70
2022-08-05T10:25:28.239Z,0.63
2022-08-05T10:30:06.317Z,0.68
2022-08-05T10:34:12.593Z,0.60
2022-08-05T10:38:28.468Z,0.65
2022-08-05T10:42:45.774Z,0.70
2022-08-05T10:46:58.770Z,0.70
2022-08-05T10:51:21.697Z,0.77
2022-08-05T10:56:03.649Z,0.65
2022-08-05T11:00:23.776Z,0.65
2022-08-05T11:05:04.031Z,0.80
2022-08-05T11:09:32.025Z,1.02
2022-08-05T11:13:57.706Z,0.52
2022-08-05T11:18:32.606Z,0.80
2022-08-05T11:22:49.898Z,0.50
2022-08-05T11:27:51.179Z,0.50
2022-08-05T11:32:27.261Z,0.70
2022-08-05T11:36:44.519Z,0.80
2022-08-05T11:41:12.925Z,0.55
2022-08-05T11:46:15.018Z,0.70
2022-08-05T11:50:04.778Z,0.73
2022-08-05T11:54:34.007Z,0.50
2022-08-05T11:58:51.475Z,0.60
2022-08-05T12:03:31.613Z,0.60
2022-08-05T12:08:03.274Z,0.70
2022-08-05T12:12:22.766Z,0.50
2022-08-05T12:16:41.097Z,0.50
2022-08-05T12:20:57.363Z,0.65
2022-08-05T12:25:09.315Z,0.60
2022-08-05T12:29:28.980Z,0.45
2022-08-05T12:33:51.007Z,0.80
2022-08-05T12:38:06.065Z,0.70
2022-08-05T12:42:19.733Z,0.70
2022-08-05T12:46:33.778Z,0.50
2022-08-05T12:52:11.032Z,0.52
2022-08-05T12:55:46.293Z,0.70
2022-08-05T13:02:01.886Z,0.52
2022-08-05T13:04:32.546Z,0.50
2022-08-05T13:08:51.964Z,0.80
2022-08-05T13:13:06.420Z,0.60
2022-08-05T13:17:23.139Z,0.90
2022-08-05T13:21:52.282Z,0.55
2022-08-05T13:26:07.566Z,1.00
2022-08-05T13:30:35.274Z,0.75
2022-08-05T13:34:51.586Z,0.50
2022-08-05T13:39:24.106Z,0.60
2022-08-05T13:43:44.650Z,0.70
2022-08-05T13:48:09.847Z,0.60
2022-08-05T13:52:37.323Z,0.50
2022-08-05T13:56:51.050Z,0.55
2022-08-05T14:01:03.825Z,0.70
2022-08-05T14:05:19.635Z,0.40
2022-08-05T14:09:42.967Z,0.60
2022-08-05T14:13:58.338Z,0.60
2022-08-05T14:18:15.092Z,0.60
2022-08-05T14:22:34.569Z,0.70
2022-08-05T14:27:08.527Z,0.68
2022-08-05T14:31:54.513Z,0.45
2022-08-05T14:35:54.300Z,0.65
2022-08-05T14:40:06.917Z,0.65
2022-08-05T14:44:20.297Z,0.50
2022-08-05T14:48:34.080Z,0.60
2022-08-05T14:52:58.285Z,0.47
2022-08-05T14:57:13.727Z,0.47
2022-08-05T15:01:49.034Z,0.70
2022-08-05T15:06:07.877Z,0.68
2022-08-05T15:10:28.940Z,0.80
2022-08-05T15:14:48.198Z,0.60
2022-08-05T15:19:02.384Z,0.32
2022-08-05T15:23:14.873Z,0.55
2022-08-05T15:27:26.655Z,0.73
2022-08-05T15:31:52.906Z,0.50
2022-08-05T15:36:05.992Z,0.60
2022-08-05T15:41:00.919Z,0.75
2022-08-05T15:45:00.370Z,0.50
2022-08-05T15:49:18.124Z,0.60
2022-08-05T15:53:51.290Z,0.60
2022-08-05T15:58:03.528Z,0.85
2022-08-05T16:02:25.105Z,0.70
2022-08-05T16:06:37.352Z,0.80
2022-08-05T16:10:49.000Z,0.95
2022-08-05T16:15:02.119Z,0.60
2022-08-05T16:19:19.169Z,0.80
2022-08-05T16:23:54.328Z,0.52
2022-08-05T16:28:10.635Z,0.85
2022-08-05T16:32:29.233Z,0.60
2022-08-05T16:36:42.705Z,1.00
2022-08-05T16:42:13.049Z,0.82
2022-08-05T16:46:07.209Z,0.75
2022-08-05T16:50:25.031Z,0.68
2022-08-05T16:54:36.805Z,0.50
2022-08-05T16:58:51.013Z,0.60
2022-08-05T17:03:09.221Z,0.47
2022-08-05T17:07:43.836Z,0.63
2022-08-05T17:12:06.504Z,0.40
2022-08-05T17:16:32.560Z,0.65
2022-08-05T17:20:45.500Z,0.70
2022-08-05T17:24:58.781Z,1.30
2022-08-05T17:29:17.307Z,0.70
2022-08-05T17:33:38.863Z,0.73
2022-08-05T17:38:00.411Z,0.70
2022-08-05T17:42:22.786Z,0.82
2022-08-05T17:46:36.398Z,0.60
2022-08-05T17:50:48.748Z,0.77
2022-08-05T17:55:02.963Z,0.60
2022-08-05T17:59:14.894Z,0.80
2022-08-05T18:03:59.449Z,0.57
2022-08-05T18:08:05.675Z,0.88
2022-08-05T18:12:24.078Z,0.90
2022-08-05T18:16:51.280Z,0.90
2022-08-05T18:21:04.865Z,0.60
2022-08-05T18:25:25.321Z,0.73
2022-08-05T18:29:52.031Z,0.52
2022-08-05T18:34:06.424Z,0.65
2022-08-05T18:38:26.864Z,0.60
2022-08-05T18:42:40.253Z,0.70
2022-08-05T18:46:53.556Z,0.60
2022-08-05T18:52:05.360Z,0.70
2022-08-05T18:55:55.732Z,0.65
2022-08-05T19:00:20.521Z,0.82
2022-08-05T19:04:34.918Z,0.60
2022-08-05T19:09:06.521Z,0.80
2022-08-05T19:13:19.809Z,0.57
2022-08-05T19:17:59.182Z,1.08
2022-08-05T19:22:07.936Z,0.88
2022-08-05T19:26:21.960Z,0.80
2022-08-05T19:30:33.674Z,1.20
2022-08-05T19:34:55.128Z,0.95
2022-08-05T19:39:07.515Z,0.80
2022-08-05T19:43:24.407Z,0.65
2022-08-05T19:47:52.345Z,0.93
2022-08-05T19:52:30.462Z,0.70
2022-08-05T19:56:39.191Z,0.70
2022-08-05T20:00:52.676Z,1.10
2022-08-05T20:05:09.486Z,1.27
2022-08-05T20:09:26.419Z,1.05
2022-08-05T20:13:59.021Z,0.85
2022-08-05T20:18:32.825Z,1.10
2022-08-05T20:22:46.923Z,0.90
2022-08-05T20:26:58.613Z,1.40
2022-08-05T20:31:10.185Z,1.20
2022-08-05T20:35:47.794Z,1.13
2022-08-05T20:39:59.505Z,0.85
2022-08-05T20:44:17.686Z,1.13
2022-08-05T20:48:31.535Z,0.95
2022-08-05T20:52:44.009Z,1.00
2022-08-05T20:56:58.000Z,1.00
2022-08-05T21:01:09.669Z,0.85
2022-08-05T21:05:24.116Z,1.17
2022-08-05T21:09:35.802Z,0.70
2022-08-05T21:13:56.681Z,0.95
2022-08-05T21:18:08.563Z,1.02
2022-08-05T21:22:25.527Z,1.13
2022-08-05T21:26:37.361Z,0.90
2022-08-05T21:30:48.943Z,0.75
2022-08-05T21:35:08.221Z,1.10
2022-08-05T21:39:34.479Z,1.13
2022-08-05T21:44:01.232Z,0.82
2022-08-05T21:48:13.749Z,1.17
2022-08-05T21:52:28.376Z,0.80
2022-08-05T21:56:44.606Z,1.17
2022-08-05T22:01:04.900Z,1.17
2022-08-05T22:05:16.728Z,1.00
2022-08-05T22:09:45.474Z,1.15
2022-08-05T22:14:19.619Z,1.13
2022-08-05T22:18:29.775Z,1.30
2022-08-05T22:23:00.140Z,1.33
2022-08-05T22:28:10.557Z,1.23
2022-08-05T22:32:03.283Z,1.10
2022-08-05T22:36:15.609Z,1.35
2022-08-05T22:40:28.102Z,1.27
2022-08-05T22:44:53.535Z,1.77
2022-08-05T22:50:18.121Z,1.67
2022-08-05T22:53:44.511Z,1.65
2022-08-05T22:58:01.907Z,1.40
2022-08-05T23:02:16.570Z,1.20
2022-08-05T23:06:28.619Z,1.40
2022-08-05T23:10:41.666Z,1.15
2022-08-05T23:14:53.893Z,1.48
2022-08-05T23:19:05.696Z,1.65
2022-08-05T23:23:20.405Z,1.38
2022-08-05T23:27:42.472Z,1.30
2022-08-05T23:32:06.228Z,1.25
2022-08-05T23:36:18.041Z,1.10
2022-08-05T23:40:29.754Z,1.10
2022-08-05T23:44:41.400Z,1.20
2022-08-05T23:49:00.746Z,1.08
2022-08-05T23:53:22.243Z,0.80
2022-08-05T23:57:35.831Z,1.13
